Time;durP1;ratioP1;P1;durP2;ratioP2;P2;SDS_P1;SDS_P2;PMS_P1;PMS_P2;Temp;Humidity;BMP_temperature;BMP_pressure;BME280_temperature;BME280_humidity;BME280_pressure;Samples;Min_cycle;Max_cycle;Signal;HPM_P1;HPM_P2
2023/01/22 00:00:53;;;;;;;;;;;;;;;4.22;73.81;100592.94;5393831;32;34047;-74
2023/01/22 00:03:55;;;;;;;;;;;;;;;3.83;74.82;100591.56;5398467;32;33254;-79
2023/01/22 00:06:57;;;;;;;;;;;;;;;3.38;75.73;100585.84;5402296;32;36161;-73
2023/01/22 00:09:59;;;;;;;;;;;;;;;3.27;77.31;100604.06;5410556;32;34223;-74
2023/01/22 00:13:01;;;;;;;;;;;;;;;3.62;75.95;100603.84;5400384;32;34326;-75
2023/01/22 00:16:03;;;;;;;;;;;;;;;3.79;75.53;100612.38;5401804;32;34025;-80
2023/01/22 00:19:05;;;;;;;;;;;;;;;3.82;75.03;100621.03;5404425;32;36236;-77
2023/01/22 00:22:09;;;;;;;;;;;;;;;3.91;75.17;100621.81;5398111;32;35521;-76
2023/01/22 00:25:11;;;;;;;;;;;;;;;3.79;74.24;100612.38;5401903;32;34323;-75
2023/01/22 00:28:13;;;;;;;;;;;;;;;3.98;74.49;100612.22;5388380;32;33442;-81
2023/01/22 00:31:15;;;;;;;;;;;;;;;4.17;75.41;100603.37;5409630;32;34708;-79
2023/01/22 00:34:17;;;;;;;;;;;;;;;4.82;71.18;100609.63;5384336;32;45978;-82
2023/01/22 00:37:19;;;;;;;;;;;;;;;3.80;73.53;100618.47;5399154;32;33936;-75
2023/01/22 00:40:21;;;;;;;;;;;;;;;4.44;72.61;100617.00;5408695;32;34630;-79
2023/01/22 00:43:23;;;;;;;;;;;;;;;4.33;73.36;100623.19;5397923;32;33760;-77
2023/01/22 00:46:25;;;;;;;;;;;;;;;4.23;73.62;100615.47;5406043;32;33056;-80
2023/01/22 00:49:27;;;;;;;;;;;;;;;3.92;73.50;100622.69;5398706;32;34355;-74
2023/01/22 00:52:29;;;;;;;;;;;;;;;4.09;73.83;100626.00;5400923;32;34106;-75
2023/01/22 00:55:31;;;;;;;;;;;;;;;4.93;71.04;100624.25;5397220;32;33358;-81
2023/01/22 00:58:33;;;;;;;;;;;;;;;4.20;72.32;100626.78;5404055;32;34082;-80
2023/01/22 01:01:38;;;;;;;;;;;;;;;4.34;71.32;100632.72;5406412;32;33852;-80
2023/01/22 01:04:40;;;;;;;;;;;;;;;4.35;73.55;100628.38;5406381;32;33960;-79
2023/01/22 01:07:42;;;;;;;;;;;;;;;4.44;72.90;100635.22;5412435;32;33852;-79
2023/01/22 01:10:44;;;;;;;;;;;;;;;4.45;72.46;100631.75;5392832;32;34532;-74
2023/01/22 01:13:46;;;;;;;;;;;;;;;4.13;74.30;100637.25;5403971;32;44659;-75
2023/01/22 01:16:49;;;;;;;;;;;;;;;3.94;74.33;100626.16;5401032;32;32259;-80
2023/01/22 01:19:51;;;;;;;;;;;;;;;4.10;74.00;100638.13;5383958;32;34015;-74
2023/01/22 01:22:53;;;;;;;;;;;;;;;4.79;71.40;100633.09;5394476;32;34728;-76
2023/01/22 01:25:55;;;;;;;;;;;;;;;3.90;74.15;100637.44;5385921;32;33799;-81
2023/01/22 01:28:57;;;;;;;;;;;;;;;4.70;72.17;100633.22;5414146;32;34553;-80
2023/01/22 01:31:59;;;;;;;;;;;;;;;3.96;74.74;100645.19;5396458;32;34457;-79
2023/01/22 01:35:01;;;;;;;;;;;;;;;4.00;74.37;100641.69;5406730;32;34372;-81
2023/01/22 01:38:03;;;;;;;;;;;;;;;4.78;71.46;100636.59;5402771;32;34040;-74
2023/01/22 01:41:05;;;;;;;;;;;;;;;4.52;72.50;100643.81;5392380;32;33860;-80
2023/01/22 01:44:12;;;;;;;;;;;;;;;3.93;75.65;100643.50;5411485;32;34246;-75
2023/01/22 01:47:40;;;;;;;;;;;;;;;4.31;74.22;100643.13;5380917;32;33774;-80
2023/01/22 01:50:42;;;;;;;;;;;;;;;4.93;72.62;100638.16;5393778;32;34064;-80
2023/01/22 01:53:45;;;;;;;;;;;;;;;4.77;71.70;100642.69;5395407;32;34011;-80
2023/01/22 01:56:48;;;;;;;;;;;;;;;3.39;78.40;100647.31;5393707;32;47068;-79
2023/01/22 01:59:50;;;;;;;;;;;;;;;3.85;78.15;100647.00;5415948;32;34441;-80
2023/01/22 02:02:52;;;;;;;;;;;;;;;4.53;75.98;100638.59;5407765;32;33779;-81
2023/01/22 02:05:53;;;;;;;;;;;;;;;5.04;72.49;100635.41;5418444;32;33862;-81
2023/01/22 02:08:56;;;;;;;;;;;;;;;4.10;75.19;100637.28;5397368;32;34538;-80
2023/01/22 02:11:58;;;;;;;;;;;;;;;3.56;78.21;100639.44;5406312;32;31742;-75
2023/01/22 02:15:02;;;;;;;;;;;;;;;3.44;79.35;100645.56;5405504;32;33991;-75
2023/01/22 02:18:04;;;;;;;;;;;;;;;4.10;75.84;100632.94;5376464;32;35807;-80
2023/01/22 02:21:25;;;;;;;;;;;;;;;4.09;75.87;100631.22;5416582;32;32166;-73
2023/01/22 02:24:28;;;;;;;;;;;;;;;4.72;74.83;100622.78;5406842;32;34622;-79
2023/01/22 02:27:30;;;;;;;;;;;;;;;4.33;74.58;100625.78;5399806;32;34561;-74
2023/01/22 02:30:32;;;;;;;;;;;;;;;3.96;75.55;100630.44;5406967;32;33913;-74
2023/01/22 02:33:34;;;;;;;;;;;;;;;3.73;75.97;100632.34;5393168;32;34278;-75
2023/01/22 02:36:37;;;;;;;;;;;;;;;3.91;75.51;100629.63;5396510;32;33328;-75
2023/01/22 02:39:38;;;;;;;;;;;;;;;3.74;75.30;100627.16;5397634;32;35576;-80
2023/01/22 02:42:40;;;;;;;;;;;;;;;3.69;78.25;100623.72;5414555;32;33971;-80
2023/01/22 02:45:42;;;;;;;;;;;;;;;3.37;78.92;100617.88;5396350;32;33983;-79
2023/01/22 02:48:44;;;;;;;;;;;;;;;3.71;76.66;100618.50;5398169;32;32307;-80
2023/01/22 02:51:46;;;;;;;;;;;;;;;3.87;77.36;100617.53;5377055;32;45362;-74
2023/01/22 02:54:48;;;;;;;;;;;;;;;3.55;78.48;100617.78;5417482;32;34002;-80
2023/01/22 02:57:50;;;;;;;;;;;;;;;3.98;78.06;100620.03;5407064;32;33888;-75
2023/01/22 03:00:52;;;;;;;;;;;;;;;3.94;76.45;100616.59;5379194;32;34366;-74
2023/01/22 03:03:55;;;;;;;;;;;;;;;2.76;79.90;100624.22;5411293;32;34526;-81
2023/01/22 03:06:57;;;;;;;;;;;;;;;3.49;78.79;100616.06;5402213;32;33446;-75
2023/01/22 03:09:59;;;;;;;;;;;;;;;3.58;78.54;100609.94;5397542;32;33810;-74
2023/01/22 03:23:03;;;;;;;;;;;;;;;3.92;76.84;100592.31;5401795;32;34147;-82
2023/01/22 03:26:05;;;;;;;;;;;;;;;3.00;78.54;100602.50;5409728;32;34707;-81
2023/01/22 03:29:07;;;;;;;;;;;;;;;3.57;78.25;100600.41;5404013;32;33921;-79
2023/01/22 03:32:09;;;;;;;;;;;;;;;3.67;79.82;100596.00;5385768;32;34331;-73
2023/01/22 03:35:11;;;;;;;;;;;;;;;3.15;78.15;100599.81;5424557;32;34034;-75
2023/01/22 03:38:13;;;;;;;;;;;;;;;3.24;79.41;100604.97;5400026;32;34052;-74
2023/01/22 03:41:15;;;;;;;;;;;;;;;3.69;78.94;100594.28;5413777;32;34491;-74
2023/01/22 03:44:17;;;;;;;;;;;;;;;3.80;77.20;100587.25;5401071;32;45027;-79
2023/01/22 03:47:19;;;;;;;;;;;;;;;3.87;77.65;100588.06;5416771;32;33250;-79
2023/01/22 03:50:21;;;;;;;;;;;;;;;4.14;75.92;100587.81;5385527;32;34474;-79
2023/01/22 03:53:23;;;;;;;;;;;;;;;3.49;79.33;100578.84;5388315;32;33959;-78
2023/01/22 03:56:25;;;;;;;;;;;;;;;3.39;79.56;100593.59;5410564;32;34037;-79
2023/01/22 03:59:27;;;;;;;;;;;;;;;3.76;78.73;100590.75;5403953;32;34642;-77
2023/01/22 04:02:29;;;;;;;;;;;;;;;4.35;76.89;100595.41;5417232;32;34697;-79
2023/01/22 04:05:31;;;;;;;;;;;;;;;3.97;77.92;100598.34;5398644;32;33852;-79
2023/01/22 04:08:33;;;;;;;;;;;;;;;3.65;78.35;100592.56;5413017;32;34810;-73
2023/01/22 04:11:35;;;;;;;;;;;;;;;3.42;79.55;100590.16;5396464;32;33890;-79
2023/01/22 04:14:37;;;;;;;;;;;;;;;4.22;77.21;100591.19;5386498;32;35630;-75
2023/01/22 04:17:39;;;;;;;;;;;;;;;4.15;77.10;100592.13;5410052;32;33309;-79
2023/01/22 04:20:41;;;;;;;;;;;;;;;4.17;77.50;100586.91;5396879;32;32738;-74
2023/01/22 04:23:43;;;;;;;;;;;;;;;4.24;76.68;100591.16;5418918;32;34373;-75
2023/01/22 04:26:45;;;;;;;;;;;;;;;3.83;77.42;100591.56;5407876;32;34770;-74
2023/01/22 04:29:47;;;;;;;;;;;;;;;4.65;76.04;100582.06;5420778;32;44940;-80
2023/01/22 04:32:49;;;;;;;;;;;;;;;3.78;78.30;100594.19;5405236;32;33721;-78
2023/01/22 04:35:51;;;;;;;;;;;;;;;4.54;76.51;100596.06;5399007;32;34488;-75
2023/01/22 04:38:53;;;;;;;;;;;;;;;5.01;73.80;100583.34;5414651;32;34020;-74
2023/01/22 04:41:54;;;;;;;;;;;;;;;4.81;73.62;100579.25;5402189;32;33963;-80
2023/01/22 04:44:56;;;;;;;;;;;;;;;3.84;77.58;100588.09;5422674;32;35358;-75
2023/01/22 04:47:58;;;;;;;;;;;;;;;4.14;78.42;100581.75;5400668;32;33517;-79
2023/01/22 04:51:00;;;;;;;;;;;;;;;4.87;74.18;100581.78;5389233;32;34153;-80
2023/01/22 04:54:02;;;;;;;;;;;;;;;4.24;76.57;100588.56;5386185;32;35282;-75
2023/01/22 04:57:04;;;;;;;;;;;;;;;4.41;77.84;100580.59;5376980;32;34444;-81
2023/01/22 05:00:07;;;;;;;;;;;;;;;4.23;78.09;100592.91;5422702;32;33969;-79
2023/01/22 05:03:09;;;;;;;;;;;;;;;5.13;74.29;100580.56;5394979;32;35362;-79
2023/01/22 05:06:11;;;;;;;;;;;;;;;4.72;74.69;100581.97;5399115;32;34090;-79
2023/01/22 05:09:12;;;;;;;;;;;;;;;4.84;76.08;100594.00;5401460;32;33423;-79
2023/01/22 05:12:14;;;;;;;;;;;;;;;4.17;77.86;100594.72;5404542;32;34454;-80
2023/01/22 05:15:16;;;;;;;;;;;;;;;4.10;78.14;100617.31;5408322;32;42406;-74
2023/01/22 05:18:25;;;;;;;;;;;;;;;4.67;77.54;100609.81;5406444;32;33074;-79
2023/01/22 05:21:27;;;;;;;;;;;;;;;5.32;73.28;100608.09;5416777;32;34601;-80
2023/01/22 05:24:29;;;;;;;;;;;;;;;4.30;76.65;100610.19;5398665;32;33441;-74
2023/01/22 05:27:31;;;;;;;;;;;;;;;3.97;79.09;100624.38;5411963;32;33770;-75
2023/01/22 05:30:33;;;;;;;;;;;;;;;4.84;75.96;100633.91;5407202;32;33905;-80
2023/01/22 05:33:35;;;;;;;;;;;;;;;4.45;77.40;100639.56;5412713;32;34545;-74
2023/01/22 05:36:37;;;;;;;;;;;;;;;4.22;78.81;100632.81;5409289;32;33964;-81
2023/01/22 05:39:39;;;;;;;;;;;;;;;5.02;76.60;100644.97;5407809;32;34237;-75
2023/01/22 05:42:41;;;;;;;;;;;;;;;5.29;74.98;100651.59;5411147;32;34211;-80
2023/01/22 05:45:43;;;;;;;;;;;;;;;4.98;76.75;100664.16;5398187;32;34850;-81
2023/01/22 05:48:45;;;;;;;;;;;;;;;5.91;71.99;100652.44;5419021;32;34519;-74
2023/01/22 05:51:47;;;;;;;;;;;;;;;5.23;72.67;100662.97;5381686;32;47165;-74
2023/01/22 05:54:49;;;;;;;;;;;;;;;5.87;72.07;100669.88;5394622;32;34521;-79
2023/01/22 05:57:51;;;;;;;;;;;;;;;6.13;70.51;100673.88;5406947;32;34010;-74
2023/01/22 06:00:53;;;;;;;;;;;;;;;5.97;70.09;100670.63;5406045;32;33213;-79
2023/01/22 06:03:55;;;;;;;;;;;;;;;5.76;71.07;100682.22;5412954;32;33893;-75
2023/01/22 06:06:57;;;;;;;;;;;;;;;5.70;71.41;100693.59;5397102;32;34556;-74
2023/01/22 06:09:59;;;;;;;;;;;;;;;6.31;69.04;100677.87;5405173;32;33868;-80
2023/01/22 06:13:01;;;;;;;;;;;;;;;5.47;71.89;100671.31;5395003;32;35068;-81
2023/01/22 06:16:03;;;;;;;;;;;;;;;4.90;75.37;100700.72;5393594;32;34446;-80
2023/01/22 06:19:05;;;;;;;;;;;;;;;5.90;72.75;100705.47;5409159;32;33950;-79
2023/01/22 06:22:07;;;;;;;;;;;;;;;5.53;72.03;100699.91;5396041;32;34471;-81
2023/01/22 06:25:09;;;;;;;;;;;;;;;4.65;76.73;100699.22;5423321;32;33961;-75
2023/01/22 06:28:11;;;;;;;;;;;;;;;5.55;74.48;100716.44;5399870;32;34225;-74
2023/01/22 06:31:12;;;;;;;;;;;;;;;6.46;70.04;100717.69;5405108;32;34787;-74
2023/01/22 06:34:15;;;;;;;;;;;;;;;4.92;74.63;100729.34;5408391;32;33930;-80
2023/01/22 06:37:17;;;;;;;;;;;;;;;4.73;78.14;100747.75;5392954;32;44820;-75
2023/01/22 06:40:19;;;;;;;;;;;;;;;6.00;73.14;100725.37;5413470;32;33320;-82
2023/01/22 06:43:21;;;;;;;;;;;;;;;4.99;74.99;100734.44;5398380;32;35790;-74
2023/01/22 06:46:23;;;;;;;;;;;;;;;4.20;78.66;100736.06;5409683;32;33756;-79
2023/01/22 06:49:25;;;;;;;;;;;;;;;4.53;79.48;100739.25;5411879;32;33637;-80
2023/01/22 06:52:27;;;;;;;;;;;;;;;4.78;77.54;100745.09;5391213;32;33960;-74
2023/01/22 06:55:29;;;;;;;;;;;;;;;5.91;72.89;100735.94;5409845;32;33681;-74
2023/01/22 06:58:31;;;;;;;;;;;;;;;5.13;74.75;100734.31;5407976;32;33607;-82
2023/01/22 07:01:33;;;;;;;;;;;;;;;4.47;75.52;100734.97;5399146;32;35187;-80
2023/01/22 07:04:35;;;;;;;;;;;;;;;4.27;79.06;100755.94;5397152;32;34147;-82
2023/01/22 07:07:37;;;;;;;;;;;;;;;4.85;77.31;100760.66;5415541;32;33810;-79
2023/01/22 07:10:38;;;;;;;;;;;;;;;6.13;72.20;100752.16;5395027;32;34671;-80
2023/01/22 07:13:41;;;;;;;;;;;;;;;5.25;73.50;100755.00;5414470;32;33862;-80
2023/01/22 07:16:43;;;;;;;;;;;;;;;5.03;76.19;100763.97;5401607;32;34138;-80
2023/01/22 07:19:45;;;;;;;;;;;;;;;5.32;75.91;100768.84;5402050;32;33378;-75
2023/01/22 07:22:47;;;;;;;;;;;;;;;6.71;69.08;100764.28;5413578;32;45529;-81
2023/01/22 07:25:49;;;;;;;;;;;;;;;6.04;70.74;100778.38;5400101;32;34374;-74
2023/01/22 07:28:50;;;;;;;;;;;;;;;5.85;72.54;100782.94;5415111;32;34139;-82
2023/01/22 07:31:52;;;;;;;;;;;;;;;6.21;71.03;100782.47;5400334;32;35091;-74
2023/01/22 07:34:54;;;;;;;;;;;;;;;5.75;69.44;100800.47;5400132;32;33739;-79
2023/01/22 07:37:57;;;;;;;;;;;;;;;6.38;69.98;100799.63;5388316;32;34997;-74
2023/01/22 07:41:00;;;;;;;;;;;;;;;6.72;67.21;100795.59;5404270;32;33975;-75
2023/01/22 07:44:02;;;;;;;;;;;;;;;5.71;71.08;100812.66;5415644;32;33868;-75
2023/01/22 07:47:04;;;;;;;;;;;;;;;6.38;70.63;100815.31;5400199;32;34492;-76
2023/01/22 07:50:07;;;;;;;;;;;;;;;6.24;70.51;100810.25;5408262;32;33732;-76
2023/01/22 07:53:10;;;;;;;;;;;;;;;6.11;70.63;100809.56;5367689;32;34736;-80
2023/01/22 07:56:12;;;;;;;;;;;;;;;6.30;69.84;100812.78;5411271;32;33913;-75
2023/01/22 07:59:14;;;;;;;;;;;;;;;6.65;67.66;100820.09;5401624;32;33650;-75
2023/01/22 08:02:16;;;;;;;;;;;;;;;6.12;69.92;100813.06;5399213;32;43122;-80
2023/01/22 08:05:18;;;;;;;;;;;;;;;5.96;70.93;100812.41;5416931;32;34175;-74
2023/01/22 08:08:20;;;;;;;;;;;;;;;6.20;68.54;100826.87;5403294;32;33839;-81
2023/01/22 08:11:22;;;;;;;;;;;;;;;6.83;67.19;100813.69;5399425;32;34516;-74
2023/01/22 08:14:24;;;;;;;;;;;;;;;6.36;69.64;100827.50;5370340;32;33458;-80
2023/01/22 08:17:26;;;;;;;;;;;;;;;6.72;67.34;100821.72;5413246;32;33178;-80
2023/01/22 08:20:28;;;;;;;;;;;;;;;7.15;65.91;100834.03;5397330;32;34443;-74
2023/01/22 08:23:29;;;;;;;;;;;;;;;6.62;68.22;100840.16;5405581;32;33362;-80
2023/01/22 08:26:31;;;;;;;;;;;;;;;6.79;67.33;100853.81;5415352;32;34050;-80
2023/01/22 08:29:34;;;;;;;;;;;;;;;7.03;68.25;100856.03;5395517;32;34491;-80
2023/01/22 08:32:36;;;;;;;;;;;;;;;6.50;67.38;100851.63;5412157;32;33514;-80
2023/01/22 08:35:38;;;;;;;;;;;;;;;6.72;67.70;100855.66;5384568;32;33872;-81
2023/01/22 08:38:40;;;;;;;;;;;;;;;6.64;66.29;100865.38;5412990;32;32974;-75
2023/01/22 08:41:42;;;;;;;;;;;;;;;7.09;65.67;100865.53;5398856;32;34179;-80
2023/01/22 08:44:44;;;;;;;;;;;;;;;7.34;64.20;100876.38;5387052;32;35529;-80
2023/01/22 08:47:46;;;;;;;;;;;;;;;6.45;67.47;100875.22;5416166;32;33833;-80
2023/01/22 08:50:48;;;;;;;;;;;;;;;7.35;65.10;100878.13;5388727;32;34600;-81
2023/01/22 08:53:50;;;;;;;;;;;;;;;7.40;64.32;100880.66;5399855;32;33302;-80
2023/01/22 08:56:52;;;;;;;;;;;;;;;8.76;60.88;100880.44;5402842;32;33720;-80
2023/01/22 08:59:54;;;;;;;;;;;;;;;8.52;61.36;100880.13;5399236;32;32115;-79
2023/01/22 09:03:02;;;;;;;;;;;;;;;7.75;63.89;100895.69;5407620;32;34313;-75
2023/01/22 09:06:04;;;;;;;;;;;;;;;6.87;66.23;100906.81;5383702;32;34698;-82
2023/01/22 09:09:06;;;;;;;;;;;;;;;6.81;68.00;100914.75;5416517;32;34280;-75
2023/01/22 09:12:08;;;;;;;;;;;;;;;6.44;67.22;100915.28;5393192;32;33427;-75
2023/01/22 09:15:10;;;;;;;;;;;;;;;7.27;64.20;100904.38;5414361;32;33597;-82
2023/01/22 09:18:12;;;;;;;;;;;;;;;7.56;64.91;100909.13;5390253;32;33744;-82
2023/01/22 09:21:14;;;;;;;;;;;;;;;8.37;61.23;100909.25;5416091;32;32733;-80
2023/01/22 09:24:16;;;;;;;;;;;;;;;6.20;64.14;100911.25;5401830;32;36916;-81
2023/01/22 09:27:18;;;;;;;;;;;;;;;6.87;65.39;100909.41;5405657;32;34358;-74
2023/01/22 09:30:21;;;;;;;;;;;;;;;6.62;66.68;100910.66;5410643;32;33755;-81
2023/01/22 09:33:23;;;;;;;;;;;;;;;7.65;62.53;100910.69;5405150;32;34049;-81
2023/01/22 09:36:25;;;;;;;;;;;;;;;7.38;63.65;100917.28;5403705;32;33889;-74
2023/01/22 09:39:27;;;;;;;;;;;;;;;7.80;62.36;100920.03;5398872;32;33904;-80
2023/01/22 09:42:30;;;;;;;;;;;;;;;8.23;60.52;100925.25;5409739;32;34433;-79
2023/01/22 09:45:33;;;;;;;;;;;;;;;7.53;62.56;100929.22;5398695;32;34037;-80
2023/01/22 09:48:37;;;;;;;;;;;;;;;6.88;65.94;100941.63;5398731;32;34565;-81
2023/01/22 09:51:38;;;;;;;;;;;;;;;6.75;65.58;100935.72;5393522;32;33804;-75
2023/01/22 09:54:42;;;;;;;;;;;;;;;7.09;66.12;100930.00;5397124;32;33942;-81
2023/01/22 09:57:45;;;;;;;;;;;;;;;6.67;67.97;100932.37;5416475;32;34457;-80
2023/01/22 10:00:47;;;;;;;;;;;;;;;6.09;70.33;100936.59;5404841;32;45204;-81
2023/01/22 10:03:49;;;;;;;;;;;;;;;6.56;66.90;100942.97;5413052;32;35351;-80
2023/01/22 10:06:52;;;;;;;;;;;;;;;6.70;66.55;100943.66;5406322;32;35426;-75
2023/01/22 10:09:54;;;;;;;;;;;;;;;6.44;67.67;100919.63;5382297;32;33781;-81
2023/01/22 10:13:05;;;;;;;;;;;;;;;7.37;65.92;100936.50;5404803;32;33361;-75
2023/01/22 10:16:08;;;;;;;;;;;;;;;6.62;68.09;100934.19;5383592;32;33495;-75
2023/01/22 10:19:24;;;;;;;;;;;;;;;7.70;64.76;100929.78;5412589;32;34388;-76
2023/01/22 10:22:26;;;;;;;;;;;;;;;7.86;64.36;100941.72;5398350;32;43186;-81
2023/01/22 10:25:28;;;;;;;;;;;;;;;8.17;63.61;100948.06;5397224;32;33773;-75
2023/01/22 10:28:30;;;;;;;;;;;;;;;7.60;63.15;100943.94;5401040;32;34435;-80
2023/01/22 10:31:36;;;;;;;;;;;;;;;7.63;64.35;100956.97;5395539;32;33812;-80
2023/01/22 10:34:38;;;;;;;;;;;;;;;6.97;67.02;100958.06;5408713;32;34385;-80
2023/01/22 10:37:51;;;;;;;;;;;;;;;7.46;65.46;100951.16;5403823;32;33882;-82
2023/01/22 10:40:55;;;;;;;;;;;;;;;7.40;68.10;100957.34;5409557;32;44859;-76
2023/01/22 10:44:06;;;;;;;;;;;;;;;7.76;65.35;100952.37;5405364;32;34268;-80
2023/01/22 10:47:17;;;;;;;;;;;;;;;7.54;67.34;100958.00;5399182;32;35006;-75
2023/01/22 10:50:19;;;;;;;;;;;;;;;7.58;66.80;100964.00;5389683;32;44707;-81
2023/01/22 10:53:32;;;;;;;;;;;;;;;7.49;67.60;100962.44;5390338;32;33189;-75
2023/01/22 10:56:35;;;;;;;;;;;;;;;7.08;69.18;100965.72;5405357;32;33931;-76
2023/01/22 10:59:37;;;;;;;;;;;;;;;7.98;65.99;100958.03;5389854;32;33648;-75
2023/01/22 11:02:43;;;;;;;;;;;;;;;8.39;64.52;100962.50;5400742;32;34591;-82
2023/01/22 11:05:45;;;;;;;;;;;;;;;8.74;63.69;100946.00;5408883;32;33256;-74
2023/01/22 11:08:50;;;;;;;;;;;;;;;8.57;64.15;100949.00;5392300;32;44719;-74
2023/01/22 11:12:12;;;;;;;;;;;;;;;8.70;63.22;100954.00;5409716;32;36093;-80
2023/01/22 11:15:17;;;;;;;;;;;;;;;9.02;62.57;100953.25;5386858;32;34173;-79
2023/01/22 11:18:28;;;;;;;;;;;;;;;7.67;66.53;100958.66;5405373;32;45184;-75
2023/01/22 11:21:37;;;;;;;;;;;;;;;8.15;65.28;100961.22;5413108;32;34599;-76
2023/01/22 11:24:43;;;;;;;;;;;;;;;7.93;66.94;100958.16;5382960;32;33808;-83
2023/01/22 11:27:48;;;;;;;;;;;;;;;8.25;66.63;100959.28;5411933;32;34408;-75
2023/01/22 11:31:05;;;;;;;;;;;;;;;8.45;64.79;100967.62;5406724;32;45308;-82
2023/01/22 11:34:07;;;;;;;;;;;;;;;8.17;65.87;100980.34;5418642;32;34447;-81
2023/01/22 11:37:09;;;;;;;;;;;;;;;7.41;68.09;100977.41;5408506;32;33865;-75
2023/01/22 11:40:14;;;;;;;;;;;;;;;7.46;68.20;100987.75;5410087;32;33897;-74
2023/01/22 11:43:30;;;;;;;;;;;;;;;7.99;67.55;100973.75;5415439;32;34465;-82
2023/01/22 11:46:41;;;;;;;;;;;;;;;6.88;70.33;100970.38;5392549;32;33253;-75
2023/01/22 11:49:46;;;;;;;;;;;;;;;8.01;66.60;100961.47;5395033;32;34659;-76
2023/01/22 11:53:01;;;;;;;;;;;;;;;8.56;64.57;100969.97;5378803;32;45520;-79
2023/01/22 11:56:03;;;;;;;;;;;;;;;8.38;64.87;100974.75;5406157;32;34517;-82
2023/01/22 11:59:15;;;;;;;;;;;;;;;8.23;66.20;100972.37;5403828;32;33432;-75
2023/01/22 12:02:36;;;;;;;;;;;;;;;7.35;69.77;100981.88;5387055;32;44545;-81
2023/01/22 12:05:41;;;;;;;;;;;;;;;7.37;68.69;100980.94;5407981;32;34503;-78
2023/01/22 12:08:45;;;;;;;;;;;;;;;7.55;69.85;100995.47;5394782;32;34247;-81
2023/01/22 12:11:47;;;;;;;;;;;;;;;7.29;68.31;101001.12;5385350;32;44251;-80
2023/01/22 12:14:58;;;;;;;;;;;;;;;7.62;68.47;100993.63;5419929;32;34068;-74
2023/01/22 12:18:26;;;;;;;;;;;;;;;8.08;67.18;100989.25;5403091;32;34775;-74
2023/01/22 12:21:34;;;;;;;;;;;;;;;7.21;70.21;101002.97;5390505;32;33294;-77
2023/01/22 12:24:56;;;;;;;;;;;;;;;7.99;66.95;100999.06;5387772;32;33345;-77
2023/01/22 12:28:05;;;;;;;;;;;;;;;8.03;67.04;100998.09;5365388;32;32527;-75
2023/01/22 12:31:12;;;;;;;;;;;;;;;8.68;64.73;101006.41;5404647;32;32969;-75
2023/01/22 12:34:34;;;;;;;;;;;;;;;9.20;62.08;100995.59;5387586;32;34373;-81
2023/01/22 12:37:41;;;;;;;;;;;;;;;8.17;65.99;101019.63;5393532;32;34095;-81
2023/01/22 12:41:02;;;;;;;;;;;;;;;8.43;65.61;101015.66;5382727;32;34152;-79
2023/01/22 12:44:12;;;;;;;;;;;;;;;8.57;65.77;101019.75;5392242;32;33511;-74
2023/01/22 12:47:17;;;;;;;;;;;;;;;8.36;66.32;101014.94;5397850;32;35997;-74
2023/01/22 12:50:20;;;;;;;;;;;;;;;8.39;66.07;101017.50;5400153;32;45074;-76
2023/01/22 12:53:29;;;;;;;;;;;;;;;7.94;69.15;101019.22;5399319;32;34462;-75
2023/01/22 12:56:31;;;;;;;;;;;;;;;8.05;68.10;101028.59;5409303;32;34633;-74
2023/01/22 12:59:33;;;;;;;;;;;;;;;8.01;67.10;101036.53;5393976;32;33524;-76
2023/01/22 13:02:36;;;;;;;;;;;;;;;8.93;63.54;101030.34;5398081;32;33033;-75
2023/01/22 13:05:39;;;;;;;;;;;;;;;8.85;63.75;101042.75;5395178;32;33987;-80
2023/01/22 13:08:42;;;;;;;;;;;;;;;8.20;65.47;101039.69;5390484;32;33584;-80
2023/01/22 13:11:44;;;;;;;;;;;;;;;8.09;67.95;101051.19;5391965;32;34462;-80
2023/01/22 13:14:46;;;;;;;;;;;;;;;7.82;66.93;101047.31;5390203;32;36527;-75
2023/01/22 13:17:53;;;;;;;;;;;;;;;8.74;63.91;101042.97;5406087;32;45475;-80
2023/01/22 13:21:08;;;;;;;;;;;;;;;8.70;65.05;101054.44;5378836;32;34455;-80
2023/01/22 13:24:12;;;;;;;;;;;;;;;9.25;63.26;101047.09;5415180;32;33879;-75
2023/01/22 13:27:20;;;;;;;;;;;;;;;9.00;64.29;101066.00;5383574;32;34320;-81
2023/01/22 13:30:25;;;;;;;;;;;;;;;7.73;69.90;101081.50;5419719;32;45744;-75
2023/01/22 13:33:27;;;;;;;;;;;;;;;8.60;65.55;101071.22;5406891;32;34029;-76
2023/01/22 13:36:29;;;;;;;;;;;;;;;8.88;64.22;101071.50;5391557;32;34557;-80
2023/01/22 13:39:32;;;;;;;;;;;;;;;9.25;62.90;101070.72;5412754;32;34538;-75
2023/01/22 13:42:33;;;;;;;;;;;;;;;8.11;67.41;101085.19;5395331;32;33665;-81
2023/01/22 13:45:36;;;;;;;;;;;;;;;9.04;64.37;101072.06;5420357;32;33370;-81
2023/01/22 13:48:38;;;;;;;;;;;;;;;9.50;62.58;101087.59;5403388;32;33860;-75
2023/01/22 13:51:40;;;;;;;;;;;;;;;9.35;62.64;101088.84;5378715;32;34289;-76
2023/01/22 13:54:46;;;;;;;;;;;;;;;9.36;62.79;101101.06;5386468;32;35395;-76
2023/01/22 13:57:57;;;;;;;;;;;;;;;9.59;62.24;101102.25;5404637;32;44765;-75
2023/01/22 14:00:59;;;;;;;;;;;;;;;9.27;62.85;101110.88;5406479;32;32748;-81
2023/01/22 14:04:02;;;;;;;;;;;;;;;9.25;62.61;101113.53;5400333;32;33885;-80
2023/01/22 14:07:05;;;;;;;;;;;;;;;9.69;61.66;101109.91;5411759;32;33474;-83
2023/01/22 14:10:33;;;;;;;;;;;;;;;9.36;62.14;101108.94;5381868;32;33723;-74
2023/01/22 14:13:39;;;;;;;;;;;;;;;9.26;63.50;101120.50;5399534;32;34415;-81
2023/01/22 14:16:41;;;;;;;;;;;;;;;9.24;63.68;101117.06;5398043;32;34122;-75
2023/01/22 14:19:43;;;;;;;;;;;;;;;9.05;65.12;101123.59;5399903;32;32167;-80
2023/01/22 14:22:46;;;;;;;;;;;;;;;8.74;65.59;101123.34;5407603;32;35587;-75
2023/01/22 14:25:48;;;;;;;;;;;;;;;9.23;64.38;101129.31;5394809;32;45065;-80
2023/01/22 14:28:50;;;;;;;;;;;;;;;8.58;66.40;101142.00;5409707;32;32932;-75
2023/01/22 14:31:52;;;;;;;;;;;;;;;9.25;64.35;101139.78;5401574;32;34304;-82
2023/01/22 14:34:54;;;;;;;;;;;;;;;8.71;65.28;101155.75;5382564;32;34052;-81
2023/01/22 14:37:56;;;;;;;;;;;;;;;9.50;63.51;101148.81;5411889;32;33706;-82
2023/01/22 14:41:01;;;;;;;;;;;;;;;9.61;62.97;101158.22;5392426;32;34093;-75
2023/01/22 14:44:03;;;;;;;;;;;;;;;9.69;62.75;101157.16;5411366;32;34247;-81
2023/01/22 14:47:05;;;;;;;;;;;;;;;9.38;63.67;101162.22;5400951;32;33313;-76
2023/01/22 14:50:08;;;;;;;;;;;;;;;8.55;67.57;101167.38;5398332;32;33722;-75
2023/01/22 14:53:10;;;;;;;;;;;;;;;8.59;68.29;101169.94;5390627;32;34054;-75
2023/01/22 14:56:12;;;;;;;;;;;;;;;9.25;65.17;101157.28;5400589;32;34520;-79
2023/01/22 14:59:14;;;;;;;;;;;;;;;8.66;68.00;101170.69;5424569;32;34575;-81
2023/01/22 15:02:16;;;;;;;;;;;;;;;8.43;68.28;101172.84;5402190;32;34770;-81
2023/01/22 15:05:18;;;;;;;;;;;;;;;8.77;67.64;101175.72;5411120;32;44802;-81
2023/01/22 15:08:20;;;;;;;;;;;;;;;8.28;69.44;101177.44;5402141;32;34413;-76
2023/01/22 15:11:22;;;;;;;;;;;;;;;7.79;71.04;101180.84;5399399;32;33626;-80
2023/01/22 15:14:24;;;;;;;;;;;;;;;8.24;70.25;101182.75;5404602;32;34355;-75
2023/01/22 15:17:26;;;;;;;;;;;;;;;8.20;70.08;101199.41;5400112;32;33971;-82
2023/01/22 15:20:28;;;;;;;;;;;;;;;8.23;69.84;101196.72;5411903;32;34382;-78
2023/01/22 15:23:30;;;;;;;;;;;;;;;9.11;67.26;101195.12;5395514;32;34084;-76
2023/01/22 15:26:34;;;;;;;;;;;;;;;8.86;66.75;101191.28;5411145;32;34034;-83
2023/01/22 15:29:36;;;;;;;;;;;;;;;8.70;68.17;101206.44;5394938;32;34001;-78
2023/01/22 15:32:38;;;;;;;;;;;;;;;7.71;70.51;101208.88;5410805;32;34859;-81
2023/01/22 15:35:40;;;;;;;;;;;;;;;8.81;67.28;101206.22;5405869;32;33757;-80
2023/01/22 15:38:42;;;;;;;;;;;;;;;8.84;67.71;101200.94;5401370;32;33769;-75
2023/01/22 15:41:44;;;;;;;;;;;;;;;8.51;67.91;101213.75;5398238;32;34331;-80
2023/01/22 15:44:46;;;;;;;;;;;;;;;8.32;68.58;101222.78;5400122;32;45586;-75
2023/01/22 15:47:48;;;;;;;;;;;;;;;9.37;65.40;101220.84;5414863;32;34167;-81
2023/01/22 15:50:50;;;;;;;;;;;;;;;9.03;65.27;101227.66;5371612;32;34078;-76
2023/01/22 15:53:56;;;;;;;;;;;;;;;8.51;67.24;101241.72;5396701;32;34629;-75
2023/01/22 15:56:58;;;;;;;;;;;;;;;8.58;67.92;101241.59;5406467;32;33590;-76
2023/01/22 16:00:00;;;;;;;;;;;;;;;8.77;67.24;101241.25;5390740;32;34106;-81
2023/01/22 16:03:02;;;;;;;;;;;;;;;9.49;64.34;101241.56;5411649;32;32972;-82
2023/01/22 16:06:14;;;;;;;;;;;;;;;9.35;63.55;101233.13;5401736;32;33884;-80